sensor_id;sensor_type;location;lat;lon;timestamp;pressure;altitude;pressure_sealevel;temperature;humidity
55044;BME280;54902;50.420;18.854;2023-06-19T00:00:08;101304.62;;;14.09;61.94
55044;BME280;54902;50.420;18.854;2023-06-19T00:00:45;101305.51;;;14.09;61.90
55044;BME280;54902;50.420;18.854;2023-06-19T00:01:16;101307.37;;;14.09;61.85
55044;BME280;54902;50.420;18.854;2023-06-19T00:01:47;101313.86;;;14.08;61.83
55044;BME280;54902;50.420;18.854;2023-06-19T00:02:18;101304.76;;;14.07;61.84
55044;BME280;54902;50.420;18.854;2023-06-19T00:02:49;101306.62;;;14.07;61.85
55044;BME280;54902;50.420;18.854;2023-06-19T00:03:20;101304.76;;;14.07;61.84
55044;BME280;54902;50.420;18.854;2023-06-19T00:03:51;101304.87;;;14.06;61.84
55044;BME280;54902;50.420;18.854;2023-06-19T00:04:22;101318.61;;;14.06;61.82
55044;BME280;54902;50.420;18.854;2023-06-19T00:04:53;101303.98;;;14.05;61.84
55044;BME280;54902;50.420;18.854;2023-06-19T00:05:24;101314.11;;;14.05;61.86
55044;BME280;54902;50.420;18.854;2023-06-19T00:05:55;101303.98;;;14.05;61.88
55044;BME280;54902;50.420;18.854;2023-06-19T00:06:26;101310.37;;;14.06;61.88
55044;BME280;54902;50.420;18.854;2023-06-19T00:06:59;101309.47;;;14.05;61.93
55044;BME280;54902;50.420;18.854;2023-06-19T00:07:31;101311.37;;;14.05;61.92
55044;BME280;54902;50.420;18.854;2023-06-19T00:08:02;101307.75;;;14.04;61.92
55044;BME280;54902;50.420;18.854;2023-06-19T00:08:36;101310.64;;;14.03;61.95
55044;BME280;54902;50.420;18.854;2023-06-19T00:09:07;101305.15;;;14.03;61.95
55044;BME280;54902;50.420;18.854;2023-06-19T00:09:39;101298.77;;;14.02;61.94
55044;BME280;54902;50.420;18.854;2023-06-19T00:10:10;101306.16;;;14.02;61.93
55044;BME280;54902;50.420;18.854;2023-06-19T00:10:41;101309.75;;;14.02;61.93
55044;BME280;54902;50.420;18.854;2023-06-19T00:11:12;101309.90;;;14.01;61.96
55044;BME280;54902;50.420;18.854;2023-06-19T00:11:43;101304.39;;;14.01;61.94
55044;BME280;54902;50.420;18.854;2023-06-19T00:12:13;101307.15;;;14.01;61.96
55044;BME280;54902;50.420;18.854;2023-06-19T00:12:44;101310.04;;;13.99;61.96
55044;BME280;54902;50.420;18.854;2023-06-19T00:13:15;101310.90;;;14.00;61.97
55044;BME280;54902;50.420;18.854;2023-06-19T00:13:49;101304.69;;;13.98;62.05
55044;BME280;54902;50.420;18.854;2023-06-19T00:14:20;101313.93;;;13.97;62.04
55044;BME280;54902;50.420;18.854;2023-06-19T00:14:51;101305.69;;;13.97;62.03
55044;BME280;54902;50.420;18.854;2023-06-19T00:15:22;101310.18;;;13.98;62.03
55044;BME280;54902;50.420;18.854;2023-06-19T00:15:53;101308.43;;;13.97;62.04
55044;BME280;54902;50.420;18.854;2023-06-19T00:16:24;101306.69;;;13.96;62.02
55044;BME280;54902;50.420;18.854;2023-06-19T00:16:58;101313.17;;;13.95;62.01
55044;BME280;54902;50.420;18.854;2023-06-19T00:17:31;101307.69;;;13.95;62.02
55044;BME280;54902;50.420;18.854;2023-06-19T00:18:02;101307.69;;;13.95;62.02
55044;BME280;54902;50.420;18.854;2023-06-19T00:18:33;101307.69;;;13.95;62.01
55044;BME280;54902;50.420;18.854;2023-06-19T00:19:10;101306.82;;;13.94;62.01
55044;BME280;54902;50.420;18.854;2023-06-19T00:19:43;101312.32;;;13.94;62.01
55044;BME280;54902;50.420;18.854;2023-06-19T00:20:14;101304.22;;;13.93;62.02
55044;BME280;54902;50.420;18.854;2023-06-19T00:20:45;101300.63;;;13.93;62.00
55044;BME280;54902;50.420;18.854;2023-06-19T00:21:17;101304.22;;;13.93;62.00
55044;BME280;54902;50.420;18.854;2023-06-19T00:21:49;101304.37;;;13.92;62.03
55044;BME280;54902;50.420;18.854;2023-06-19T00:22:20;101310.85;;;13.91;62.07
55044;BME280;54902;50.420;18.854;2023-06-19T00:22:51;101305.37;;;13.91;62.06
55044;BME280;54902;50.420;18.854;2023-06-19T00:23:23;101309.11;;;13.90;62.12
55044;BME280;54902;50.420;18.854;2023-06-19T00:23:54;101297.27;;;13.89;62.20
55044;BME280;54902;50.420;18.854;2023-06-19T00:24:25;101307.39;;;13.89;62.24
55044;BME280;54902;50.420;18.854;2023-06-19T00:24:55;101313.74;;;13.89;62.23
55044;BME280;54902;50.420;18.854;2023-06-19T00:25:26;101306.49;;;13.88;62.17
55044;BME280;54902;50.420;18.854;2023-06-19T00:25:57;101298.40;;;13.87;62.14
55044;BME280;54902;50.420;18.854;2023-06-19T00:26:31;101307.49;;;13.87;62.12
55044;BME280;54902;50.420;18.854;2023-06-19T00:27:03;101305.79;;;13.86;62.11
55044;BME280;54902;50.420;18.854;2023-06-19T00:27:34;101308.52;;;13.86;62.09
55044;BME280;54902;50.420;18.854;2023-06-19T00:28:05;101312.28;;;13.85;62.12
55044;BME280;54902;50.420;18.854;2023-06-19T00:28:44;101313.14;;;13.86;62.09
55044;BME280;54902;50.420;18.854;2023-06-19T00:29:18;101309.53;;;13.85;62.06
55044;BME280;54902;50.420;18.854;2023-06-19T00:29:48;101310.53;;;13.84;62.06
55044;BME280;54902;50.420;18.854;2023-06-19T00:30:19;101318.77;;;13.84;62.06
55044;BME280;54902;50.420;18.854;2023-06-19T00:30:50;101308.78;;;13.83;62.11
55044;BME280;54902;50.420;18.854;2023-06-19T00:31:22;101308.78;;;13.83;62.09
55044;BME280;54902;50.420;18.854;2023-06-19T00:31:53;101307.92;;;13.83;62.08
55044;BME280;54902;50.420;18.854;2023-06-19T00:32:24;101315.30;;;13.82;62.07
55044;BME280;54902;50.420;18.854;2023-06-19T00:32:55;101311.67;;;13.82;62.07
55044;BME280;54902;50.420;18.854;2023-06-19T00:33:27;101309.05;;;13.80;62.06
55044;BME280;54902;50.420;18.854;2023-06-19T00:33:59;101314.56;;;13.80;62.04
55044;BME280;54902;50.420;18.854;2023-06-19T00:34:30;101313.70;;;13.80;62.04
55044;BME280;54902;50.420;18.854;2023-06-19T00:35:01;101314.70;;;13.79;62.02
55044;BME280;54902;50.420;18.854;2023-06-19T00:35:34;101313.84;;;13.78;62.01
55044;BME280;54902;50.420;18.854;2023-06-19T00:36:10;101321.19;;;13.78;62.01
55044;BME280;54902;50.420;18.854;2023-06-19T00:36:41;101312.23;;;13.76;62.00
55044;BME280;54902;50.420;18.854;2023-06-19T00:37:12;101311.34;;;13.75;62.00
55044;BME280;54902;50.420;18.854;2023-06-19T00:37:45;101314.22;;;13.74;62.00
55044;BME280;54902;50.420;18.854;2023-06-19T00:38:16;101314.22;;;13.74;62.00
55044;BME280;54902;50.420;18.854;2023-06-19T00:38:47;101313.37;;;13.73;62.00
55044;BME280;54902;50.420;18.854;2023-06-19T00:39:18;101314.37;;;13.72;61.98
55044;BME280;54902;50.420;18.854;2023-06-19T00:39:49;101314.37;;;13.72;62.01
55044;BME280;54902;50.420;18.854;2023-06-19T00:40:27;101319.11;;;13.70;62.02
55044;BME280;54902;50.420;18.854;2023-06-19T00:40:59;101314.64;;;13.69;62.03
55044;BME280;54902;50.420;18.854;2023-06-19T00:41:30;101317.53;;;13.68;62.04
55044;BME280;54902;50.420;18.854;2023-06-19T00:42:02;101315.64;;;13.68;62.05
55044;BME280;54902;50.420;18.854;2023-06-19T00:42:33;101306.66;;;13.66;62.07
55044;BME280;54902;50.420;18.854;2023-06-19T00:43:06;101311.29;;;13.66;62.09
55044;BME280;54902;50.420;18.854;2023-06-19T00:43:37;101311.43;;;13.64;62.12
55044;BME280;54902;50.420;18.854;2023-06-19T00:44:08;101308.68;;;13.64;62.12
55044;BME280;54902;50.420;18.854;2023-06-19T00:44:40;101313.42;;;13.62;62.18
55044;BME280;54902;50.420;18.854;2023-06-19T00:45:10;101315.17;;;13.63;62.15
55044;BME280;54902;50.420;18.854;2023-06-19T00:45:41;101311.70;;;13.61;62.17
55044;BME280;54902;50.420;18.854;2023-06-19T00:46:12;101310.81;;;13.61;62.19
55044;BME280;54902;50.420;18.854;2023-06-19T00:46:44;101311.84;;;13.60;62.20
55044;BME280;54902;50.420;18.854;2023-06-19T00:47:15;101309.20;;;13.58;62.19
55044;BME280;54902;50.420;18.854;2023-06-19T00:47:46;101302.00;;;13.57;62.19
55044;BME280;54902;50.420;18.854;2023-06-19T00:48:17;101303.84;;;13.57;62.20
55044;BME280;54902;50.420;18.854;2023-06-19T00:48:48;101309.48;;;13.55;62.20
55044;BME280;54902;50.420;18.854;2023-06-19T00:49:19;101311.37;;;13.55;62.21
55044;BME280;54902;50.420;18.854;2023-06-19T00:49:50;101310.48;;;13.54;62.21
55044;BME280;54902;50.420;18.854;2023-06-19T00:50:22;101308.77;;;13.53;62.21
55044;BME280;54902;50.420;18.854;2023-06-19T00:50:54;101303.38;;;13.52;62.22
55044;BME280;54902;50.420;18.854;2023-06-19T00:51:26;101313.50;;;13.51;62.24
55044;BME280;54902;50.420;18.854;2023-06-19T00:51:57;101301.67;;;13.51;62.23
55044;BME280;54902;50.420;18.854;2023-06-19T00:52:28;101306.27;;;13.50;62.25
55044;BME280;54902;50.420;18.854;2023-06-19T00:53:00;101301.80;;;13.49;62.26
55044;BME280;54902;50.420;18.854;2023-06-19T00:53:35;101300.05;;;13.48;62.26
55044;BME280;54902;50.420;18.854;2023-06-19T00:54:06;101302.05;;;13.46;62.22
55044;BME280;54902;50.420;18.854;2023-06-19T00:54:38;101293.81;;;13.46;62.26
55044;BME280;54902;50.420;18.854;2023-06-19T00:55:09;101297.59;;;13.45;62.28
55044;BME280;54902;50.420;18.854;2023-06-19T00:55:41;101298.59;;;13.44;62.29
55044;BME280;54902;50.420;18.854;2023-06-19T00:56:14;101293.23;;;13.43;62.34
55044;BME280;54902;50.420;18.854;2023-06-19T00:56:49;101297.70;;;13.44;62.40
55044;BME280;54902;50.420;18.854;2023-06-19T00:57:20;101295.09;;;13.42;62.39
55044;BME280;54902;50.420;18.854;2023-06-19T00:57:52;101302.46;;;13.42;62.43
55044;BME280;54902;50.420;18.854;2023-06-19T00:58:24;101298.83;;;13.41;62.51
55044;BME280;54902;50.420;18.854;2023-06-19T00:58:55;101293.48;;;13.40;62.55
55044;BME280;54902;50.420;18.854;2023-06-19T00:59:26;101288.27;;;13.37;62.63
55044;BME280;54902;50.420;18.854;2023-06-19T00:59:58;101292.62;;;13.39;62.62
55044;BME280;54902;50.420;18.854;2023-06-19T01:00:29;101304.46;;;13.40;62.65
55044;BME280;54902;50.420;18.854;2023-06-19T01:01:00;101293.63;;;13.38;62.63
55044;BME280;54902;50.420;18.854;2023-06-19T01:01:31;101296.36;;;13.38;62.67
55044;BME280;54902;50.420;18.854;2023-06-19T01:02:02;101290.87;;;13.38;62.66
55044;BME280;54902;50.420;18.854;2023-06-19T01:02:34;101300.99;;;13.38;62.63
55044;BME280;54902;50.420;18.854;2023-06-19T01:03:05;101297.35;;;13.37;62.62
55044;BME280;54902;50.420;18.854;2023-06-19T01:03:37;101294.61;;;13.37;62.61
55044;BME280;54902;50.420;18.854;2023-06-19T01:04:08;101289.12;;;13.37;62.58
55044;BME280;54902;50.420;18.854;2023-06-19T01:04:39;101291.87;;;13.37;62.58
55044;BME280;54902;50.420;18.854;2023-06-19T01:05:12;101295.63;;;13.37;62.56
55044;BME280;54902;50.420;18.854;2023-06-19T01:05:44;101286.51;;;13.36;62.57
55044;BME280;54902;50.420;18.854;2023-06-19T01:06:22;101291.15;;;13.36;62.54
55044;BME280;54902;50.420;18.854;2023-06-19T01:07:02;101296.64;;;13.36;62.55
55044;BME280;54902;50.420;18.854;2023-06-19T01:09:04;101298.63;;;13.34;62.55
55044;BME280;54902;50.420;18.854;2023-06-19T01:09:46;101296.02;;;13.32;62.51
55044;BME280;54902;50.420;18.854;2023-06-19T01:10:21;101292.42;;;13.32;62.50
55044;BME280;54902;50.420;18.854;2023-06-19T01:10:59;101289.67;;;13.32;62.48
55044;BME280;54902;50.420;18.854;2023-06-19T01:11:39;101290.53;;;13.32;62.48
55044;BME280;54902;50.420;18.854;2023-06-19T01:12:20;101295.30;;;13.30;62.49
55044;BME280;54902;50.420;18.854;2023-06-19T01:13:01;101291.67;;;13.30;62.48
55044;BME280;54902;50.420;18.854;2023-06-19T01:14:19;101293.69;;;13.28;62.49
55044;BME280;54902;50.420;18.854;2023-06-19T01:14:58;101288.20;;;13.28;62.50
55044;BME280;54902;50.420;18.854;2023-06-19T01:15:29;101294.69;;;13.27;62.52
55044;BME280;54902;50.420;18.854;2023-06-19T01:16:02;101290.05;;;13.27;62.53
55044;BME280;54902;50.420;18.854;2023-06-19T01:16:35;101285.59;;;13.26;62.52
55044;BME280;54902;50.420;18.854;2023-06-19T01:17:06;101293.96;;;13.25;62.49
55044;BME280;54902;50.420;18.854;2023-06-19T01:17:37;101285.84;;;13.23;62.49
55044;BME280;54902;50.420;18.854;2023-06-19T01:18:09;101286.73;;;13.24;62.50
55044;BME280;54902;50.420;18.854;2023-06-19T01:18:42;101286.73;;;13.24;62.51
55044;BME280;54902;50.420;18.854;2023-06-19T01:19:17;101290.47;;;13.23;62.50
55044;BME280;54902;50.420;18.854;2023-06-19T01:19:51;101288.71;;;13.22;62.49
55044;BME280;54902;50.420;18.854;2023-06-19T01:20:22;101293.34;;;13.21;62.50
55044;BME280;54902;50.420;18.854;2023-06-19T01:20:53;101284.26;;;13.21;62.51
55044;BME280;54902;50.420;18.854;2023-06-19T01:21:24;101290.75;;;13.20;62.51
55044;BME280;54902;50.420;18.854;2023-06-19T01:21:55;101286.25;;;13.19;62.52
55044;BME280;54902;50.420;18.854;2023-06-19T01:22:29;101286.25;;;13.19;62.53
55044;BME280;54902;50.420;18.854;2023-06-19T01:23:10;101288.13;;;13.18;62.53
55044;BME280;54902;50.420;18.854;2023-06-19T01:23:42;101279.14;;;13.16;62.53
55044;BME280;54902;50.420;18.854;2023-06-19T01:24:14;101280.15;;;13.15;62.54
55044;BME280;54902;50.420;18.854;2023-06-19T01:24:45;101287.52;;;13.15;62.53
55044;BME280;54902;50.420;18.854;2023-06-19T01:25:15;101283.91;;;13.14;62.54
55044;BME280;54902;50.420;18.854;2023-06-19T01:25:46;101284.91;;;13.13;62.55
55044;BME280;54902;50.420;18.854;2023-06-19T01:26:21;101284.02;;;13.13;62.56
55044;BME280;54902;50.420;18.854;2023-06-19T01:26:52;101284.02;;;13.13;62.56
55044;BME280;54902;50.420;18.854;2023-06-19T01:27:24;101284.30;;;13.10;62.58
55044;BME280;54902;50.420;18.854;2023-06-19T01:28:05;101285.18;;;13.10;62.57
55044;BME280;54902;50.420;18.854;2023-06-19T01:28:42;101281.55;;;13.10;62.59
55044;BME280;54902;50.420;18.854;2023-06-19T01:29:14;101278.95;;;13.08;62.61
55044;BME280;54902;50.420;18.854;2023-06-19T01:29:46;101283.58;;;13.08;62.60
55044;BME280;54902;50.420;18.854;2023-06-19T01:30:17;101280.84;;;13.08;62.62
55044;BME280;54902;50.420;18.854;2023-06-19T01:30:48;101287.31;;;13.07;62.59
55044;BME280;54902;50.420;18.854;2023-06-19T01:32:10;101280.21;;;13.04;62.62
55044;BME280;54902;50.420;18.854;2023-06-19T01:33:28;101283.09;;;13.03;62.64
55044;BME280;54902;50.420;18.854;2023-06-19T01:34:04;101283.09;;;13.03;62.64
55044;BME280;54902;50.420;18.854;2023-06-19T01:34:37;101278.74;;;13.00;62.65
55044;BME280;54902;50.420;18.854;2023-06-19T01:35:09;101280.48;;;13.01;62.67
55044;BME280;54902;50.420;18.854;2023-06-19T01:35:42;101283.37;;;13.00;62.66
55044;BME280;54902;50.420;18.854;2023-06-19T01:36:14;101281.62;;;12.99;62.70
55044;BME280;54902;50.420;18.854;2023-06-19T01:36:48;101280.73;;;12.98;62.67
55044;BME280;54902;50.420;18.854;2023-06-19T01:37:20;101275.38;;;12.97;62.69
55044;BME280;54902;50.420;18.854;2023-06-19T01:37:52;101272.63;;;12.97;62.71
55044;BME280;54902;50.420;18.854;2023-06-19T01:38:25;101277.26;;;12.96;62.71
55044;BME280;54902;50.420;18.854;2023-06-19T01:38:58;101281.00;;;12.95;62.75
55044;BME280;54902;50.420;18.854;2023-06-19T01:39:31;101276.50;;;12.94;62.73
55044;BME280;54902;50.420;18.854;2023-06-19T01:40:05;101276.63;;;12.93;62.55
55044;BME280;54902;50.420;18.854;2023-06-19T01:40:40;101274.79;;;12.93;62.74
55044;BME280;54902;50.420;18.854;2023-06-19T01:41:13;101275.78;;;12.92;62.74
55044;BME280;54902;50.420;18.854;2023-06-19T01:41:46;101267.70;;;12.91;62.75
55044;BME280;54902;50.420;18.854;2023-06-19T01:42:18;101275.03;;;12.90;62.75
55044;BME280;54902;50.420;18.854;2023-06-19T01:42:49;101271.43;;;12.90;62.75
55044;BME280;54902;50.420;18.854;2023-06-19T01:43:21;101276.92;;;12.90;62.77
55044;BME280;54902;50.420;18.854;2023-06-19T01:43:54;101269.68;;;12.89;62.75
55044;BME280;54902;50.420;18.854;2023-06-19T01:44:25;101277.05;;;12.88;62.72
55044;BME280;54902;50.420;18.854;2023-06-19T01:44:57;101267.93;;;12.88;62.74
55044;BME280;54902;50.420;18.854;2023-06-19T01:45:30;101268.95;;;12.87;62.72
55044;BME280;54902;50.420;18.854;2023-06-19T01:46:01;101277.19;;;12.87;62.72
55044;BME280;54902;50.420;18.854;2023-06-19T01:46:33;101275.43;;;12.86;62.77
55044;BME280;54902;50.420;18.854;2023-06-19T01:47:10;101273.55;;;12.86;62.77
55044;BME280;54902;50.420;18.854;2023-06-19T01:47:41;101269.81;;;12.87;62.79
55044;BME280;54902;50.420;18.854;2023-06-19T01:48:14;101266.35;;;12.85;62.80
55044;BME280;54902;50.420;18.854;2023-06-19T01:48:45;101270.95;;;12.85;62.92
55044;BME280;54902;50.420;18.854;2023-06-19T01:49:16;101274.58;;;12.85;63.00
55044;BME280;54902;50.420;18.854;2023-06-19T01:49:47;101270.05;;;12.84;63.04
55044;BME280;54902;50.420;18.854;2023-06-19T01:50:21;101276.43;;;12.85;63.10
55044;BME280;54902;50.420;18.854;2023-06-19T01:50:52;101273.69;;;12.85;63.12
55044;BME280;54902;50.420;18.854;2023-06-19T01:51:23;101279.17;;;12.85;63.15
55044;BME280;54902;50.420;18.854;2023-06-19T01:51:54;101275.68;;;12.83;63.21
55044;BME280;54902;50.420;18.854;2023-06-19T01:52:28;101284.66;;;12.85;63.21
55044;BME280;54902;50.420;18.854;2023-06-19T01:52:58;101275.68;;;12.83;63.21
55044;BME280;54902;50.420;18.854;2023-06-19T01:53:32;101274.65;;;12.84;63.16
55044;BME280;54902;50.420;18.854;2023-06-19T01:54:04;101278.41;;;12.83;63.05
55044;BME280;54902;50.420;18.854;2023-06-19T01:54:35;101275.68;;;12.83;63.09
55044;BME280;54902;50.420;18.854;2023-06-19T01:55:06;101278.41;;;12.83;63.07
55044;BME280;54902;50.420;18.854;2023-06-19T01:55:37;101274.77;;;12.82;63.07
55044;BME280;54902;50.420;18.854;2023-06-19T01:56:08;101281.02;;;12.84;63.06
55044;BME280;54902;50.420;18.854;2023-06-19T01:56:39;101286.64;;;12.83;63.04
55044;BME280;54902;50.420;18.854;2023-06-19T01:57:11;101279.41;;;12.82;63.05
55044;BME280;54902;50.420;18.854;2023-06-19T01:57:42;101277.52;;;12.82;63.02
55044;BME280;54902;50.420;18.854;2023-06-19T01:58:13;101277.52;;;12.82;63.05
55044;BME280;54902;50.420;18.854;2023-06-19T01:58:44;101278.52;;;12.81;63.03
55044;BME280;54902;50.420;18.854;2023-06-19T01:59:14;101283.15;;;12.81;63.04
55044;BME280;54902;50.420;18.854;2023-06-19T01:59:46;101277.66;;;12.81;63.04
55044;BME280;54902;50.420;18.854;2023-06-19T02:00:17;101277.66;;;12.81;63.03
55044;BME280;54902;50.420;18.854;2023-06-19T02:00:48;101276.80;;;12.80;63.02
55044;BME280;54902;50.420;18.854;2023-06-19T02:01:19;101282.29;;;12.80;62.97
55044;BME280;54902;50.420;18.854;2023-06-19T02:01:50;101276.94;;;12.79;62.96
55044;BME280;54902;50.420;18.854;2023-06-19T02:02:21;101278.65;;;12.80;62.95
55044;BME280;54902;50.420;18.854;2023-06-19T02:02:52;101275.91;;;12.80;62.93
55044;BME280;54902;50.420;18.854;2023-06-19T02:03:23;101276.94;;;12.79;62.93
55044;BME280;54902;50.420;18.854;2023-06-19T02:03:54;101282.42;;;12.79;62.92
55044;BME280;54902;50.420;18.854;2023-06-19T02:04:25;101281.66;;;12.77;62.91
55044;BME280;54902;50.420;18.854;2023-06-19T02:04:56;101289.75;;;12.78;62.90
55044;BME280;54902;50.420;18.854;2023-06-19T02:05:26;101282.52;;;12.77;62.91
55044;BME280;54902;50.420;18.854;2023-06-19T02:05:57;101274.29;;;12.77;62.92
55044;BME280;54902;50.420;18.854;2023-06-19T02:06:30;101276.18;;;12.77;62.94
55044;BME280;54902;50.420;18.854;2023-06-19T02:07:01;101274.43;;;12.76;62.94
55044;BME280;54902;50.420;18.854;2023-06-19T02:07:32;101281.66;;;12.77;62.95
55044;BME280;54902;50.420;18.854;2023-06-19T02:08:03;101278.06;;;12.77;62.93
55044;BME280;54902;50.420;18.854;2023-06-19T02:08:34;101279.05;;;12.76;62.94
55044;BME280;54902;50.420;18.854;2023-06-19T02:09:05;101281.80;;;12.76;62.95
55044;BME280;54902;50.420;18.854;2023-06-19T02:09:37;101278.20;;;12.75;62.98
55044;BME280;54902;50.420;18.854;2023-06-19T02:10:09;101283.68;;;12.75;62.99
55044;BME280;54902;50.420;18.854;2023-06-19T02:10:40;101276.45;;;12.74;62.99
55044;BME280;54902;50.420;18.854;2023-06-19T02:11:11;101276.45;;;12.74;62.97
55044;BME280;54902;50.420;18.854;2023-06-19T02:11:42;101280.18;;;12.73;62.99
55044;BME280;54902;50.420;18.854;2023-06-19T02:12:12;101280.18;;;12.73;63.04
55044;BME280;54902;50.420;18.854;2023-06-19T02:12:44;101281.18;;;12.72;63.03
55044;BME280;54902;50.420;18.854;2023-06-19T02:13:15;101278.44;;;12.72;63.02
55044;BME280;54902;50.420;18.854;2023-06-19T02:13:45;101280.32;;;12.72;63.04
55044;BME280;54902;50.420;18.854;2023-06-19T02:14:16;101280.32;;;12.72;63.04
55044;BME280;54902;50.420;18.854;2023-06-19T02:14:48;101281.31;;;12.71;63.06
55044;BME280;54902;50.420;18.854;2023-06-19T02:15:19;101281.31;;;12.71;63.06
55044;BME280;54902;50.420;18.854;2023-06-19T02:15:50;101285.94;;;12.70;63.06
55044;BME280;54902;50.420;18.854;2023-06-19T02:16:21;101284.19;;;12.69;63.07
55044;BME280;54902;50.420;18.854;2023-06-19T02:16:52;101281.44;;;12.69;63.04
55044;BME280;54902;50.420;18.854;2023-06-19T02:17:23;101276.95;;;12.68;63.04
55044;BME280;54902;50.420;18.854;2023-06-19T02:17:57;101283.43;;;12.67;63.01
55044;BME280;54902;50.420;18.854;2023-06-19T02:18:27;101275.20;;;12.67;63.01
55044;BME280;54902;50.420;18.854;2023-06-19T02:18:58;101286.16;;;12.67;63.01
55044;BME280;54902;50.420;18.854;2023-06-19T02:19:30;101289.94;;;12.66;62.97
55044;BME280;54902;50.420;18.854;2023-06-19T02:20:02;101288.19;;;12.65;62.98
55044;BME280;54902;50.420;18.854;2023-06-19T02:20:34;101285.45;;;12.65;62.98
55044;BME280;54902;50.420;18.854;2023-06-19T02:21:05;101286.44;;;12.64;63.00
55044;BME280;54902;50.420;18.854;2023-06-19T02:21:36;101287.33;;;12.65;63.00
55044;BME280;54902;50.420;18.854;2023-06-19T02:22:07;101283.70;;;12.64;62.98
55044;BME280;54902;50.420;18.854;2023-06-19T02:22:38;101284.69;;;12.63;62.98
55044;BME280;54902;50.420;18.854;2023-06-19T02:23:09;101281.95;;;12.63;62.99
55044;BME280;54902;50.420;18.854;2023-06-19T02:23:40;101280.23;;;12.62;63.04
55044;BME280;54902;50.420;18.854;2023-06-19T02:24:11;101281.23;;;12.61;63.03
55044;BME280;54902;50.420;18.854;2023-06-19T02:24:42;101282.09;;;12.62;63.04
55044;BME280;54902;50.420;18.854;2023-06-19T02:25:15;101284.10;;;12.60;63.07
55044;BME280;54902;50.420;18.854;2023-06-19T02:25:46;101281.23;;;12.61;63.07
55044;BME280;54902;50.420;18.854;2023-06-19T02:26:17;101284.95;;;12.60;63.07
55044;BME280;54902;50.420;18.854;2023-06-19T02:26:48;101283.22;;;12.59;63.07
55044;BME280;54902;50.420;18.854;2023-06-19T02:27:19;101283.34;;;12.58;63.07
55044;BME280;54902;50.420;18.854;2023-06-19T02:27:50;101279.74;;;12.57;63.10
55044;BME280;54902;50.420;18.854;2023-06-19T02:28:20;101285.23;;;12.57;63.10
55044;BME280;54902;50.420;18.854;2023-06-19T02:28:51;101283.47;;;12.56;63.12
55044;BME280;54902;50.420;18.854;2023-06-19T02:29:22;101280.87;;;12.55;63.13
55044;BME280;54902;50.420;18.854;2023-06-19T02:29:53;101283.61;;;12.55;63.15
55044;BME280;54902;50.420;18.854;2023-06-19T02:30:24;101284.60;;;12.54;63.14
55044;BME280;54902;50.420;18.854;2023-06-19T02:30:55;101281.00;;;12.53;63.17
55044;BME280;54902;50.420;18.854;2023-06-19T02:31:26;101283.75;;;12.53;63.17
55044;BME280;54902;50.420;18.854;2023-06-19T02:31:57;101273.77;;;12.52;63.15
55044;BME280;54902;50.420;18.854;2023-06-19T02:32:28;101281.99;;;12.52;63.15
55044;BME280;54902;50.420;18.854;2023-06-19T02:32:59;101285.73;;;12.51;63.13
55044;BME280;54902;50.420;18.854;2023-06-19T02:33:30;101288.46;;;12.51;63.12
55044;BME280;54902;50.420;18.854;2023-06-19T02:34:02;101285.73;;;12.51;63.12
55044;BME280;54902;50.420;18.854;2023-06-19T02:34:33;101285.86;;;12.50;63.15
55044;BME280;54902;50.420;18.854;2023-06-19T02:35:06;101286.74;;;12.50;63.15
55044;BME280;54902;50.420;18.854;2023-06-19T02:35:39;101285.00;;;12.49;63.19
55044;BME280;54902;50.420;18.854;2023-06-19T02:36:12;101275.88;;;12.49;63.16
55044;BME280;54902;50.420;18.854;2023-06-19T02:36:43;101280.50;;;12.48;63.18
55044;BME280;54902;50.420;18.854;2023-06-19T02:37:17;101285.86;;;12.50;63.17
55044;BME280;54902;50.420;18.854;2023-06-19T02:37:48;101280.50;;;12.48;63.16
55044;BME280;54902;50.420;18.854;2023-06-19T02:38:19;101286.84;;;12.49;63.16
55044;BME280;54902;50.420;18.854;2023-06-19T02:38:51;101278.76;;;12.47;63.17
55044;BME280;54902;50.420;18.854;2023-06-19T02:39:23;101285.98;;;12.48;63.15
55044;BME280;54902;50.420;18.854;2023-06-19T02:39:54;101293.35;;;12.48;63.14
55044;BME280;54902;50.420;18.854;2023-06-19T02:40:25;101288.01;;;12.46;63.12
55044;BME280;54902;50.420;18.854;2023-06-19T02:40:56;101286.98;;;12.47;63.11
55044;BME280;54902;50.420;18.854;2023-06-19T02:41:32;101285.26;;;12.46;63.12
55044;BME280;54902;50.420;18.854;2023-06-19T02:42:03;101288.01;;;12.46;63.16
55044;BME280;54902;50.420;18.854;2023-06-19T02:42:35;101288.01;;;12.46;63.14
55044;BME280;54902;50.420;18.854;2023-06-19T02:43:06;101292.45;;;12.47;63.17
55044;BME280;54902;50.420;18.854;2023-06-19T02:43:37;101297.09;;;12.47;63.22
55044;BME280;54902;50.420;18.854;2023-06-19T02:44:08;101293.48;;;12.46;63.22
55044;BME280;54902;50.420;18.854;2023-06-19T02:44:39;101294.34;;;12.47;63.22
55044;BME280;54902;50.420;18.854;2023-06-19T02:45:10;101289.85;;;12.46;63.23
55044;BME280;54902;50.420;18.854;2023-06-19T02:45:41;101288.01;;;12.46;63.24
55044;BME280;54902;50.420;18.854;2023-06-19T02:46:12;101286.26;;;12.45;63.24
55044;BME280;54902;50.420;18.854;2023-06-19T02:46:43;101291.74;;;12.45;63.26
55044;BME280;54902;50.420;18.854;2023-06-19T02:47:13;101291.74;;;12.45;63.24
55044;BME280;54902;50.420;18.854;2023-06-19T02:47:44;101290.75;;;12.46;63.20
55044;BME280;54902;50.420;18.854;2023-06-19T02:48:16;101292.59;;;12.46;63.17
55044;BME280;54902;50.420;18.854;2023-06-19T02:48:47;101294.34;;;12.47;63.21